createdAt,value
2023-02-08T00:01:19.157Z,-11.40
2023-02-08T00:03:46.992Z,-11.30
2023-02-08T00:06:15.137Z,-11.40
2023-02-08T00:08:43.129Z,-11.40
2023-02-08T00:11:12.235Z,-11.40
2023-02-08T00:13:42.245Z,-11.50
2023-02-08T00:16:12.802Z,-11.50
2023-02-08T00:18:40.642Z,-11.50
2023-02-08T00:21:14.378Z,-11.60
2023-02-08T00:23:42.579Z,-11.70
2023-02-08T00:26:10.880Z,-11.60
2023-02-08T00:28:39.425Z,-11.50
2023-02-08T00:31:07.684Z,-11.50
2023-02-08T00:33:35.549Z,-11.50
2023-02-08T00:36:06.054Z,-11.60
2023-02-08T00:38:33.801Z,-11.70
2023-02-08T00:41:01.476Z,-11.80
2023-02-08T00:43:29.322Z,-11.80
2023-02-08T00:45:58.705Z,-11.90
2023-02-08T00:48:27.497Z,-11.70
2023-02-08T00:51:03.743Z,-11.60
2023-02-08T00:53:31.957Z,-11.60
2023-02-08T00:55:59.714Z,-11.40
2023-02-08T00:58:27.458Z,-11.70
2023-02-08T01:00:55.301Z,-11.90
2023-02-08T01:03:24.123Z,-12.10
2023-02-08T01:05:53.072Z,-12.00
2023-02-08T01:08:22.148Z,-12.00
2023-02-08T01:10:49.925Z,-12.00
2023-02-08T01:13:19.718Z,-12.00
2023-02-08T01:15:47.369Z,-12.00
2023-02-08T01:18:15.100Z,-11.90
2023-02-08T01:20:42.864Z,-11.60
2023-02-08T01:23:10.677Z,-11.50
2023-02-08T01:25:39.121Z,-11.60
2023-02-08T01:28:06.853Z,-11.80
2023-02-08T01:30:34.573Z,-11.70
2023-02-08T01:33:02.297Z,-12.00
2023-02-08T01:35:30.013Z,-11.80
2023-02-08T01:37:58.599Z,-11.60
2023-02-08T01:40:26.364Z,-11.60
2023-02-08T01:42:54.230Z,-11.80
2023-02-08T01:45:26.449Z,-11.90
2023-02-08T01:48:01.817Z,-11.90
2023-02-08T01:50:36.537Z,-12.10
2023-02-08T01:53:05.090Z,-11.80
2023-02-08T01:55:39.923Z,-11.80
2023-02-08T01:58:12.406Z,-11.90
2023-02-08T02:00:40.515Z,-11.80
2023-02-08T02:03:08.522Z,-11.70
2023-02-08T02:05:42.191Z,-11.70
2023-02-08T02:08:11.189Z,-11.50
2023-02-08T02:10:41.635Z,-11.60
2023-02-08T02:13:20.953Z,-11.80
2023-02-08T02:15:50.162Z,-11.80
2023-02-08T02:18:32.621Z,-11.70
2023-02-08T02:21:19.135Z,-11.70
2023-02-08T02:24:08.208Z,-11.70
2023-02-08T02:27:12.673Z,-11.80
2023-02-08T02:30:14.970Z,-11.80
2023-02-08T02:32:52.796Z,-11.90
2023-02-08T02:35:20.730Z,-11.80
2023-02-08T02:38:03.603Z,-11.70
2023-02-08T02:40:56.637Z,-11.90
2023-02-08T02:43:43.313Z,-11.90
2023-02-08T02:46:18.765Z,-12.00
2023-02-08T02:49:08.837Z,-12.00
2023-02-08T02:51:51.308Z,-11.90
2023-02-08T02:54:24.766Z,-11.80
2023-02-08T02:56:58.982Z,-11.90
2023-02-08T02:59:27.422Z,-11.90
2023-02-08T03:01:56.762Z,-12.00
2023-02-08T03:04:33.801Z,-12.20
2023-02-08T03:07:19.864Z,-12.20
2023-02-08T03:10:20.724Z,-12.30
2023-02-08T03:12:51.077Z,-12.20
2023-02-08T03:15:33.893Z,-12.20
2023-02-08T03:18:57.971Z,-12.20
2023-02-08T03:21:40.349Z,-12.20
2023-02-08T03:24:28.686Z,-12.20
2023-02-08T03:27:06.635Z,-12.20
2023-02-08T03:29:56.005Z,-12.20
2023-02-08T03:32:35.646Z,-12.30
2023-02-08T03:35:16.454Z,-12.30
2023-02-08T03:38:07.648Z,-12.30
2023-02-08T03:40:45.378Z,-12.00
2023-02-08T03:43:21.800Z,-11.90
2023-02-08T03:46:23.634Z,-11.90
2023-02-08T03:48:58.664Z,-12.10
2023-02-08T03:51:29.665Z,-12.10
2023-02-08T03:54:01.184Z,-12.10
2023-02-08T03:56:42.870Z,-12.40
2023-02-08T03:59:17.739Z,-12.50
2023-02-08T04:01:49.031Z,-12.60
2023-02-08T04:04:19.581Z,-12.50
2023-02-08T04:06:47.407Z,-12.60
2023-02-08T04:09:15.177Z,-12.50
2023-02-08T04:11:42.846Z,-12.50
2023-02-08T04:14:10.541Z,-12.70
2023-02-08T04:16:38.351Z,-12.60
2023-02-08T04:19:06.195Z,-12.60
2023-02-08T04:21:34.627Z,-12.70
2023-02-08T04:24:02.426Z,-12.70
2023-02-08T04:26:30.279Z,-12.60
2023-02-08T04:28:58.040Z,-12.60
2023-02-08T04:31:25.775Z,-12.70
2023-02-08T04:33:54.868Z,-12.60
2023-02-08T04:36:23.946Z,-12.60
2023-02-08T04:38:51.887Z,-12.60
2023-02-08T04:41:19.782Z,-12.80
2023-02-08T04:43:47.728Z,-12.70
2023-02-08T04:46:16.597Z,-12.70
2023-02-08T04:48:44.567Z,-12.60
2023-02-08T04:51:12.515Z,-12.80
2023-02-08T04:53:40.418Z,-12.80
2023-02-08T04:56:08.084Z,-12.90
2023-02-08T04:58:36.841Z,-12.90
2023-02-08T05:01:10.831Z,-13.00
2023-02-08T05:03:38.820Z,-12.90
2023-02-08T05:06:06.916Z,-13.00
2023-02-08T05:08:37.982Z,-12.90
2023-02-08T05:11:05.914Z,-12.80
2023-02-08T05:13:34.078Z,-12.70
2023-02-08T05:16:01.815Z,-12.80
2023-02-08T05:18:29.678Z,-12.80
2023-02-08T05:20:59.121Z,-12.80
2023-02-08T05:23:30.518Z,-12.70
2023-02-08T05:25:58.546Z,-12.80
2023-02-08T05:28:26.721Z,-13.00
2023-02-08T05:30:54.697Z,-13.10
2023-02-08T05:33:22.497Z,-13.10
2023-02-08T05:35:50.222Z,-13.10
2023-02-08T05:38:17.950Z,-13.10
2023-02-08T05:40:49.662Z,-13.00
2023-02-08T05:43:18.095Z,-12.90
2023-02-08T05:45:45.784Z,-12.80
2023-02-08T05:48:13.620Z,-12.80
2023-02-08T05:50:41.465Z,-13.00
2023-02-08T05:53:10.569Z,-13.00
2023-02-08T05:55:38.478Z,-12.90
2023-02-08T05:58:28.341Z,-13.00
2023-02-08T06:00:56.451Z,-13.00
2023-02-08T06:03:27.570Z,-12.90
2023-02-08T06:06:02.839Z,-13.00
2023-02-08T06:08:30.663Z,-12.90
2023-02-08T06:11:30.884Z,-13.00
2023-02-08T06:13:59.197Z,-13.10
2023-02-08T06:16:27.627Z,-13.10
2023-02-08T06:18:55.828Z,-13.00
2023-02-08T06:21:24.638Z,-13.10
2023-02-08T06:23:52.458Z,-13.10
2023-02-08T06:26:20.543Z,-13.10
2023-02-08T06:28:51.084Z,-13.00
2023-02-08T06:31:18.994Z,-13.10
2023-02-08T06:33:46.736Z,-13.10
2023-02-08T06:36:14.530Z,-13.10
2023-02-08T06:38:42.302Z,-13.00
2023-02-08T06:41:10.339Z,-13.10
2023-02-08T06:43:38.916Z,-13.00
2023-02-08T06:46:08.723Z,-13.00
2023-02-08T06:48:37.050Z,-12.90
2023-02-08T06:51:05.058Z,-13.10
2023-02-08T06:53:32.874Z,-13.20
2023-02-08T06:56:00.596Z,-13.30
2023-02-08T06:58:28.415Z,-13.30
2023-02-08T07:00:56.102Z,-13.30
2023-02-08T07:03:23.863Z,-13.20
2023-02-08T07:06:04.116Z,-13.30
2023-02-08T07:08:35.288Z,-13.10
2023-02-08T07:11:08.288Z,-13.00
2023-02-08T07:13:37.280Z,-12.80
2023-02-08T07:16:06.502Z,-12.90
2023-02-08T07:18:35.121Z,-12.80
2023-02-08T07:21:04.227Z,-13.00
2023-02-08T07:23:32.244Z,-13.10
2023-02-08T07:26:01.833Z,-13.10
2023-02-08T07:28:30.045Z,-13.00
2023-02-08T07:30:58.295Z,-13.10
2023-02-08T07:33:26.590Z,-13.10
2023-02-08T07:35:54.338Z,-13.20
2023-02-08T07:38:22.042Z,-13.10
2023-02-08T07:40:49.719Z,-13.10
2023-02-08T07:43:17.416Z,-13.00
2023-02-08T07:45:55.193Z,-12.80
2023-02-08T07:48:22.972Z,-12.80
2023-02-08T07:50:51.462Z,-13.10
2023-02-08T07:53:19.286Z,-12.70
2023-02-08T07:55:47.118Z,-12.90
2023-02-08T07:58:14.823Z,-13.00
2023-02-08T08:00:42.621Z,-13.10
2023-02-08T08:03:10.395Z,-12.80
2023-02-08T08:05:41.024Z,-12.60
2023-02-08T08:08:09.692Z,-12.00
2023-02-08T08:10:37.597Z,-11.30
2023-02-08T08:13:05.902Z,-10.80
2023-02-08T08:15:34.128Z,-10.40
2023-02-08T08:18:01.841Z,-9.70
2023-02-08T08:20:29.625Z,-9.70
2023-02-08T08:22:58.208Z,-9.80
2023-02-08T08:25:26.980Z,-9.70
2023-02-08T08:27:55.136Z,-9.20
2023-02-08T08:30:23.289Z,-9.60
2023-02-08T08:32:50.996Z,-9.30
2023-02-08T08:35:19.053Z,-9.00
2023-02-08T08:37:46.945Z,-8.50
2023-02-08T08:40:15.754Z,-8.10
2023-02-08T08:42:44.121Z,-8.90
2023-02-08T08:45:11.769Z,-8.80
2023-02-08T08:47:39.571Z,-8.30
2023-02-08T08:50:07.722Z,-8.20
2023-02-08T08:52:35.434Z,-7.50
2023-02-08T08:55:03.098Z,-8.00
2023-02-08T08:57:31.022Z,-7.60
2023-02-08T08:59:58.881Z,-6.90
2023-02-08T09:02:26.642Z,-6.50
2023-02-08T09:04:54.431Z,-6.60
2023-02-08T09:07:22.127Z,-6.90
2023-02-08T09:09:49.929Z,-6.50
2023-02-08T09:12:17.793Z,-6.50
2023-02-08T09:14:45.635Z,-6.30
2023-02-08T09:17:13.414Z,-6.40
2023-02-08T09:19:42.614Z,-6.30
2023-02-08T09:22:35.910Z,-5.70
2023-02-08T09:25:07.573Z,-6.50
2023-02-08T09:27:35.887Z,-5.70
2023-02-08T09:30:03.872Z,-5.50
2023-02-08T09:32:34.267Z,-5.50
2023-02-08T09:35:02.503Z,-5.40
2023-02-08T09:37:30.982Z,-5.00
2023-02-08T09:40:00.317Z,-4.60
2023-02-08T09:42:38.219Z,-4.40
2023-02-08T09:45:24.187Z,-4.40
2023-02-08T09:48:22.869Z,-3.70
2023-02-08T09:51:05.556Z,-3.80
2023-02-08T09:53:44.843Z,-4.70
2023-02-08T09:56:19.517Z,-4.70
2023-02-08T09:58:54.682Z,-4.50
2023-02-08T10:01:28.805Z,-4.30
2023-02-08T10:04:05.978Z,-4.10
2023-02-08T10:06:36.136Z,-2.70
2023-02-08T10:09:07.476Z,-3.00
2023-02-08T10:11:45.244Z,-3.50
2023-02-08T10:14:27.036Z,-3.10
2023-02-08T10:17:03.003Z,-2.30
2023-02-08T10:19:30.562Z,-2.00
2023-02-08T10:22:36.677Z,-3.10
2023-02-08T10:25:39.122Z,-3.30
2023-02-08T10:28:10.289Z,-3.10
2023-02-08T10:30:48.172Z,-2.00
2023-02-08T10:33:53.887Z,-1.50
2023-02-08T10:36:25.743Z,-0.70
2023-02-08T10:38:56.836Z,-1.10
2023-02-08T10:41:32.189Z,-1.40
2023-02-08T10:44:26.977Z,-1.30
2023-02-08T10:47:20.790Z,-1.20
2023-02-08T10:49:57.719Z,-1.80
2023-02-08T10:52:25.396Z,-1.50
2023-02-08T10:54:53.458Z,-0.90
2023-02-08T10:57:26.006Z,-1.20
2023-02-08T11:00:07.322Z,-0.60
2023-02-08T11:02:42.247Z,-1.60
2023-02-08T11:05:14.551Z,-0.90
2023-02-08T11:07:42.310Z,-0.40
2023-02-08T11:10:18.640Z,-0.60
2023-02-08T11:13:00.234Z,-0.20
2023-02-08T11:15:37.493Z,-0.90
2023-02-08T11:18:07.778Z,-0.10
2023-02-08T11:20:40.349Z,-0.50
2023-02-08T11:23:31.235Z,-0.80
2023-02-08T11:26:22.449Z,-0.30
2023-02-08T11:29:12.488Z,0.00
2023-02-08T11:31:57.945Z,0.60
2023-02-08T11:34:38.964Z,0.60
2023-02-08T11:37:22.766Z,0.70
2023-02-08T11:40:06.199Z,1.00
2023-02-08T11:42:44.501Z,0.70
2023-02-08T11:45:46.233Z,0.60
2023-02-08T11:48:24.756Z,1.00
2023-02-08T11:50:58.763Z,1.40
2023-02-08T11:53:36.681Z,1.10
2023-02-08T11:56:15.241Z,1.10
2023-02-08T11:58:55.928Z,1.40
2023-02-08T12:01:30.902Z,1.10
2023-02-08T12:04:01.690Z,1.40
2023-02-08T12:06:51.904Z,1.20
2023-02-08T12:09:44.284Z,1.40
2023-02-08T12:12:34.126Z,1.30
2023-02-08T12:15:59.375Z,1.60
2023-02-08T12:18:51.471Z,1.70
2023-02-08T12:21:19.137Z,1.80
2023-02-08T12:24:12.167Z,1.90
2023-02-08T12:26:57.569Z,1.70
2023-02-08T12:30:02.630Z,1.80
2023-02-08T12:32:43.817Z,1.70
2023-02-08T12:35:57.381Z,1.60
2023-02-08T12:39:18.421Z,1.60
2023-02-08T12:42:15.760Z,1.90
2023-02-08T12:45:09.491Z,2.30
2023-02-08T12:48:03.050Z,2.40
2023-02-08T12:50:58.618Z,1.50
2023-02-08T12:53:36.966Z,0.90
2023-02-08T12:56:13.118Z,2.30
2023-02-08T12:58:52.427Z,2.80
2023-02-08T13:01:26.259Z,3.10
2023-02-08T13:04:05.963Z,3.60
2023-02-08T13:06:51.930Z,4.00
2023-02-08T13:09:53.886Z,4.80
2023-02-08T13:12:30.804Z,4.50
2023-02-08T13:15:11.976Z,4.30
2023-02-08T13:17:58.054Z,4.40
2023-02-08T13:20:50.112Z,5.20
2023-02-08T13:23:26.759Z,4.90
2023-02-08T13:26:00.643Z,4.80
2023-02-08T13:28:29.041Z,3.90
2023-02-08T13:31:05.864Z,3.90
2023-02-08T13:34:00.912Z,3.70
2023-02-08T13:36:34.113Z,3.50
2023-02-08T13:39:06.889Z,3.90
2023-02-08T13:41:35.686Z,3.70
2023-02-08T13:44:09.574Z,4.80
2023-02-08T13:46:48.423Z,5.60
2023-02-08T13:49:42.772Z,4.60
2023-02-08T13:52:12.698Z,4.20
2023-02-08T13:54:40.529Z,1.20
2023-02-08T13:57:59.513Z,-0.10
2023-02-08T14:00:29.927Z,-0.40
2023-02-08T14:03:16.053Z,-1.00
2023-02-08T14:05:58.767Z,-1.20
2023-02-08T14:08:43.680Z,-1.20
2023-02-08T14:11:49.719Z,-1.30
2023-02-08T14:14:23.085Z,-1.20
2023-02-08T14:17:11.557Z,-1.20
2023-02-08T14:19:42.612Z,-1.30
2023-02-08T14:22:13.544Z,-1.50
2023-02-08T14:24:48.466Z,-1.50
2023-02-08T14:27:29.423Z,-1.60
2023-02-08T14:30:09.238Z,-1.70
2023-02-08T14:32:39.897Z,-2.10
2023-02-08T14:35:23.791Z,-2.00
2023-02-08T14:38:20.579Z,-2.10
2023-02-08T14:40:57.469Z,-1.90
2023-02-08T14:43:40.652Z,-1.80
2023-02-08T14:46:37.481Z,-2.00
2023-02-08T14:49:17.850Z,-1.90
2023-02-08T14:52:02.846Z,-2.10
2023-02-08T14:54:44.058Z,-2.20
2023-02-08T14:57:34.508Z,-2.10
2023-02-08T15:00:08.317Z,-2.20
2023-02-08T15:02:41.514Z,-2.40
2023-02-08T15:05:22.780Z,-2.50
2023-02-08T15:07:56.012Z,-2.60
2023-02-08T15:10:25.885Z,-2.60
2023-02-08T15:12:58.095Z,-2.70
2023-02-08T15:15:31.559Z,-2.80
2023-02-08T15:18:00.288Z,-2.80
2023-02-08T15:20:33.707Z,-2.90
2023-02-08T15:23:22.329Z,-3.00
2023-02-08T15:26:19.824Z,-3.00
2023-02-08T15:28:47.593Z,-3.10
2023-02-08T15:31:19.244Z,-3.30
2023-02-08T15:33:47.824Z,-3.30
2023-02-08T15:36:31.662Z,-3.30
2023-02-08T15:39:25.112Z,-3.30
2023-02-08T15:41:59.054Z,-3.40
2023-02-08T15:44:30.368Z,-3.50
2023-02-08T15:47:02.104Z,-3.60
2023-02-08T15:49:39.629Z,-3.70
2023-02-08T15:52:08.844Z,-3.80
2023-02-08T15:54:36.673Z,-3.80
2023-02-08T15:57:09.483Z,-3.80
2023-02-08T15:59:40.324Z,-3.90
2023-02-08T16:02:31.218Z,-4.00
2023-02-08T16:05:01.163Z,-4.00
2023-02-08T16:07:31.944Z,-4.10
2023-02-08T16:10:00.163Z,-4.10
2023-02-08T16:12:29.389Z,-4.20
2023-02-08T16:14:57.250Z,-4.20
2023-02-08T16:17:43.679Z,-4.30
2023-02-08T16:20:21.653Z,-4.30
2023-02-08T16:23:21.055Z,-4.40
2023-02-08T16:25:52.229Z,-4.40
2023-02-08T16:28:32.177Z,-4.50
2023-02-08T16:31:03.587Z,-4.80
2023-02-08T16:33:33.018Z,-4.90
2023-02-08T16:36:03.664Z,-4.90
2023-02-08T16:38:34.300Z,-5.10
2023-02-08T16:41:12.830Z,-5.10
2023-02-08T16:43:44.194Z,-5.20
2023-02-08T16:46:18.988Z,-5.30
2023-02-08T16:48:55.531Z,-5.40
2023-02-08T16:51:32.044Z,-5.50
2023-02-08T16:54:09.903Z,-5.80
2023-02-08T16:56:39.205Z,-5.80
2023-02-08T16:59:07.336Z,-5.90
2023-02-08T17:01:35.824Z,-6.10
2023-02-08T17:04:04.040Z,-6.30
2023-02-08T17:06:34.294Z,-6.40
2023-02-08T17:09:04.746Z,-6.50
2023-02-08T17:11:32.719Z,-6.50
2023-02-08T17:14:00.383Z,-6.50
2023-02-08T17:16:29.969Z,-6.60
2023-02-08T17:18:58.365Z,-6.50
2023-02-08T17:21:27.344Z,-6.60
2023-02-08T17:23:56.064Z,-6.50
2023-02-08T17:26:29.558Z,-6.60
2023-02-08T17:28:59.249Z,-6.60
2023-02-08T17:31:29.745Z,-6.50
2023-02-08T17:34:04.582Z,-6.50
2023-02-08T17:36:35.106Z,-6.40
2023-02-08T17:39:05.248Z,-6.40
2023-02-08T17:41:32.984Z,-6.40
2023-02-08T17:44:00.644Z,-6.30
2023-02-08T17:46:30.873Z,-6.30
2023-02-08T17:49:03.662Z,-6.20
2023-02-08T17:51:31.584Z,-6.20
2023-02-08T17:53:59.283Z,-6.20
2023-02-08T17:56:28.616Z,-6.30
2023-02-08T17:58:57.748Z,-6.30
2023-02-08T18:01:27.129Z,-6.30
2023-02-08T18:03:55.109Z,-6.30
2023-02-08T18:06:26.671Z,-6.30
2023-02-08T18:08:54.926Z,-6.40
2023-02-08T18:11:40.779Z,-6.40
2023-02-08T18:14:13.882Z,-6.40
2023-02-08T18:17:22.293Z,-6.40
2023-02-08T18:20:24.998Z,-6.40
2023-02-08T18:22:58.500Z,-6.40
2023-02-08T18:25:26.311Z,-6.40
2023-02-08T18:27:54.076Z,-6.40
2023-02-08T18:30:22.789Z,-6.40
2023-02-08T18:32:50.431Z,-6.30
2023-02-08T18:35:18.419Z,-6.40
2023-02-08T18:37:49.446Z,-6.50
2023-02-08T18:40:18.146Z,-6.50
2023-02-08T18:42:45.965Z,-6.40
2023-02-08T18:45:16.220Z,-6.40
2023-02-08T18:48:08.409Z,-6.40
2023-02-08T18:50:42.529Z,-6.40
2023-02-08T18:53:23.013Z,-6.40
2023-02-08T18:55:59.105Z,-6.50
2023-02-08T18:58:27.477Z,-6.50
2023-02-08T19:01:53.607Z,-6.50
2023-02-08T19:04:22.757Z,-6.50
2023-02-08T19:06:51.717Z,-6.30
2023-02-08T19:09:19.517Z,-6.40
2023-02-08T19:11:47.357Z,-6.70
2023-02-08T19:14:15.889Z,-6.70
2023-02-08T19:16:43.724Z,-6.80
2023-02-08T19:19:11.352Z,-6.80
2023-02-08T19:21:39.667Z,-6.70
2023-02-08T19:24:07.463Z,-6.70
2023-02-08T19:26:39.954Z,-6.60
2023-02-08T19:29:21.877Z,-6.80
2023-02-08T19:31:50.646Z,-6.70
2023-02-08T19:34:19.485Z,-6.50
2023-02-08T19:36:53.215Z,-6.40
2023-02-08T19:39:25.033Z,-6.60
2023-02-08T19:41:53.864Z,-6.70
2023-02-08T19:44:22.751Z,-6.70
2023-02-08T19:46:53.527Z,-6.60
2023-02-08T19:49:23.284Z,-6.50
2023-02-08T19:51:50.957Z,-6.40
2023-02-08T19:54:20.089Z,-6.50
2023-02-08T19:56:50.298Z,-6.60
2023-02-08T19:59:21.354Z,-6.80
2023-02-08T20:01:49.626Z,-6.80
2023-02-08T20:04:17.358Z,-6.60
2023-02-08T20:06:45.398Z,-6.60
2023-02-08T20:09:15.569Z,-6.70
2023-02-08T20:11:56.518Z,-6.60
2023-02-08T20:14:26.549Z,-6.70
2023-02-08T20:16:54.424Z,-6.70
2023-02-08T20:19:22.273Z,-6.70
2023-02-08T20:21:50.120Z,-6.90
2023-02-08T20:24:18.350Z,-6.80
2023-02-08T20:26:49.736Z,-6.80
2023-02-08T20:29:17.966Z,-6.70
2023-02-08T20:31:48.049Z,-6.80
2023-02-08T20:34:16.824Z,-6.70
2023-02-08T20:36:54.527Z,-6.60
2023-02-08T20:39:30.686Z,-6.70
2023-02-08T20:42:34.105Z,-6.70
2023-02-08T20:49:10.727Z,-6.70
2023-02-08T20:52:10.860Z,-6.70
2023-02-08T20:55:41.442Z,-6.70
2023-02-08T21:06:51.320Z,-6.70
2023-02-08T21:19:01.115Z,-7.00
2023-02-08T21:30:17.643Z,-7.20
2023-02-08T21:33:03.010Z,-7.20
2023-02-08T21:35:31.025Z,-7.30
2023-02-08T21:37:58.712Z,-7.40
2023-02-08T21:40:26.545Z,-7.50
2023-02-08T21:42:54.447Z,-7.60
2023-02-08T21:45:22.165Z,-7.60
2023-02-08T21:47:50.027Z,-7.70
2023-02-08T21:50:36.127Z,-7.70
2023-02-08T21:53:22.647Z,-7.60
2023-02-08T21:55:50.470Z,-7.70
2023-02-08T21:58:18.207Z,-7.80
2023-02-08T22:00:46.257Z,-7.80
2023-02-08T22:03:14.289Z,-7.80
2023-02-08T22:06:00.856Z,-7.80
2023-02-08T22:08:28.621Z,-7.80
2023-02-08T22:10:58.440Z,-7.80
2023-02-08T22:13:26.333Z,-7.90
2023-02-08T22:15:54.195Z,-7.90
2023-02-08T22:18:21.957Z,-8.00
2023-02-08T22:20:52.271Z,-8.20
2023-02-08T22:23:20.189Z,-8.30
2023-02-08T22:25:47.830Z,-8.10
2023-02-08T22:28:15.665Z,-8.00
2023-02-08T22:30:47.029Z,-7.90
2023-02-08T22:33:15.206Z,-8.00
2023-02-08T22:35:42.949Z,-8.00
2023-02-08T22:38:10.822Z,-8.00
2023-02-08T22:40:41.965Z,-8.00
2023-02-08T22:43:09.718Z,-8.10
2023-02-08T22:45:37.525Z,-8.00
2023-02-08T22:48:06.737Z,-8.10
2023-02-08T22:50:35.431Z,-8.10
2023-02-08T22:53:03.084Z,-8.10
2023-02-08T22:55:30.805Z,-8.30
2023-02-08T22:58:01.482Z,-8.20
2023-02-08T23:00:29.134Z,-8.20
2023-02-08T23:02:56.952Z,-8.20
2023-02-08T23:05:24.623Z,-8.30
2023-02-08T23:07:52.269Z,-8.40
2023-02-08T23:10:20.049Z,-8.20
2023-02-08T23:12:47.881Z,-8.50
2023-02-08T23:15:15.686Z,-8.40
2023-02-08T23:17:43.369Z,-8.30
2023-02-08T23:20:11.607Z,-8.40
2023-02-08T23:22:39.327Z,-8.40
2023-02-08T23:25:07.181Z,-8.40
2023-02-08T23:27:34.993Z,-8.50
2023-02-08T23:30:03.516Z,-8.40
2023-02-08T23:32:31.643Z,-8.60
2023-02-08T23:34:59.277Z,-8.80
2023-02-08T23:37:27.016Z,-8.80
2023-02-08T23:39:54.672Z,-8.80
2023-02-08T23:42:25.531Z,-8.80
2023-02-08T23:44:58.796Z,-8.80
2023-02-08T23:47:27.913Z,-8.90
2023-02-08T23:49:55.565Z,-8.90
2023-02-08T23:52:23.260Z,-9.00
2023-02-08T23:55:16.620Z,-9.10
2023-02-08T23:57:44.242Z,-9.20
